sensor_id;sensor_type;location;lat;lon;timestamp;temperature;humidity
20364;DHT22;10340;53.664;9.908;2023-04-06T00:00:55;1.00;99.90
20364;DHT22;10340;53.664;9.908;2023-04-06T00:03:23;0.90;99.90
20364;DHT22;10340;53.664;9.908;2023-04-06T00:05:51;0.90;99.90
20364;DHT22;10340;53.664;9.908;2023-04-06T00:08:19;0.90;99.90
20364;DHT22;10340;53.664;9.908;2023-04-06T00:10:47;0.80;99.90
20364;DHT22;10340;53.664;9.908;2023-04-06T00:13:14;0.80;99.90
20364;DHT22;10340;53.664;9.908;2023-04-06T00:15:41;0.80;99.90
20364;DHT22;10340;53.664;9.908;2023-04-06T00:18:08;0.70;99.90
20364;DHT22;10340;53.664;9.908;2023-04-06T00:20:36;0.60;99.90
20364;DHT22;10340;53.664;9.908;2023-04-06T00:23:03;0.60;99.90
20364;DHT22;10340;53.664;9.908;2023-04-06T00:25:31;0.60;99.90
20364;DHT22;10340;53.664;9.908;2023-04-06T00:27:58;0.50;99.90
20364;DHT22;10340;53.664;9.908;2023-04-06T00:30:25;0.50;99.90
20364;DHT22;10340;53.664;9.908;2023-04-06T00:32:52;0.50;99.90
20364;DHT22;10340;53.664;9.908;2023-04-06T00:35:19;0.40;99.90
20364;DHT22;10340;53.664;9.908;2023-04-06T00:37:47;0.50;99.90
20364;DHT22;10340;53.664;9.908;2023-04-06T00:40:15;0.40;99.90
20364;DHT22;10340;53.664;9.908;2023-04-06T00:42:42;0.30;99.90
20364;DHT22;10340;53.664;9.908;2023-04-06T00:45:10;0.30;99.90
20364;DHT22;10340;53.664;9.908;2023-04-06T00:47:37;0.30;99.90
20364;DHT22;10340;53.664;9.908;2023-04-06T00:50:05;0.30;99.90
20364;DHT22;10340;53.664;9.908;2023-04-06T00:52:33;0.30;99.90
20364;DHT22;10340;53.664;9.908;2023-04-06T00:55:02;0.30;99.90
20364;DHT22;10340;53.664;9.908;2023-04-06T00:57:30;0.20;99.90
20364;DHT22;10340;53.664;9.908;2023-04-06T00:59:57;0.20;99.90
20364;DHT22;10340;53.664;9.908;2023-04-06T01:02:25;0.20;99.90
20364;DHT22;10340;53.664;9.908;2023-04-06T01:04:52;0.20;99.90
20364;DHT22;10340;53.664;9.908;2023-04-06T01:07:20;0.20;99.90
20364;DHT22;10340;53.664;9.908;2023-04-06T01:09:47;0.10;99.90
20364;DHT22;10340;53.664;9.908;2023-04-06T01:12:16;0.10;99.90
20364;DHT22;10340;53.664;9.908;2023-04-06T01:14:43;0.10;99.90
20364;DHT22;10340;53.664;9.908;2023-04-06T01:17:10;0.00;99.90
20364;DHT22;10340;53.664;9.908;2023-04-06T01:19:38;0.00;99.90
20364;DHT22;10340;53.664;9.908;2023-04-06T01:22:06;0.00;99.90
20364;DHT22;10340;53.664;9.908;2023-04-06T01:24:34;0.00;99.90
20364;DHT22;10340;53.664;9.908;2023-04-06T01:27:01;-0.10;99.90
20364;DHT22;10340;53.664;9.908;2023-04-06T01:29:29;-0.10;99.90
20364;DHT22;10340;53.664;9.908;2023-04-06T01:31:56;-0.10;99.90
20364;DHT22;10340;53.664;9.908;2023-04-06T01:34:23;-0.20;99.90
20364;DHT22;10340;53.664;9.908;2023-04-06T01:36:50;-0.10;99.90
20364;DHT22;10340;53.664;9.908;2023-04-06T01:39:18;-0.20;99.90
20364;DHT22;10340;53.664;9.908;2023-04-06T01:41:47;-0.20;99.90
20364;DHT22;10340;53.664;9.908;2023-04-06T01:44:16;-0.20;99.90
20364;DHT22;10340;53.664;9.908;2023-04-06T01:46:44;-0.30;99.90
20364;DHT22;10340;53.664;9.908;2023-04-06T01:49:11;-0.30;99.90
20364;DHT22;10340;53.664;9.908;2023-04-06T01:51:38;-0.30;99.90
20364;DHT22;10340;53.664;9.908;2023-04-06T01:54:05;-0.30;99.90
20364;DHT22;10340;53.664;9.908;2023-04-06T01:56:33;-0.30;99.90
20364;DHT22;10340;53.664;9.908;2023-04-06T01:59:02;-0.30;99.90
20364;DHT22;10340;53.664;9.908;2023-04-06T02:01:29;-0.30;99.90
20364;DHT22;10340;53.664;9.908;2023-04-06T02:03:56;-0.30;99.90
20364;DHT22;10340;53.664;9.908;2023-04-06T02:06:24;-0.30;99.90
20364;DHT22;10340;53.664;9.908;2023-04-06T02:08:52;-0.40;99.90
20364;DHT22;10340;53.664;9.908;2023-04-06T02:11:19;-0.40;99.90
20364;DHT22;10340;53.664;9.908;2023-04-06T02:13:46;-0.40;99.90
20364;DHT22;10340;53.664;9.908;2023-04-06T02:16:15;-0.40;99.90
20364;DHT22;10340;53.664;9.908;2023-04-06T02:18:42;-0.40;99.90
20364;DHT22;10340;53.664;9.908;2023-04-06T02:21:09;-0.50;99.90
20364;DHT22;10340;53.664;9.908;2023-04-06T02:23:36;-0.50;99.90
20364;DHT22;10340;53.664;9.908;2023-04-06T02:26:03;-0.50;99.90
20364;DHT22;10340;53.664;9.908;2023-04-06T02:28:30;-0.50;99.90
20364;DHT22;10340;53.664;9.908;2023-04-06T02:30:58;-0.50;99.90
20364;DHT22;10340;53.664;9.908;2023-04-06T02:33:26;-0.50;99.90
20364;DHT22;10340;53.664;9.908;2023-04-06T02:35:53;-0.50;99.90
20364;DHT22;10340;53.664;9.908;2023-04-06T02:38:20;-0.50;99.90
20364;DHT22;10340;53.664;9.908;2023-04-06T02:40:48;-0.50;99.90
20364;DHT22;10340;53.664;9.908;2023-04-06T02:43:15;-0.50;99.90
20364;DHT22;10340;53.664;9.908;2023-04-06T02:45:42;-0.60;99.90
20364;DHT22;10340;53.664;9.908;2023-04-06T02:48:10;-0.60;99.90
20364;DHT22;10340;53.664;9.908;2023-04-06T02:50:39;-0.60;99.90
20364;DHT22;10340;53.664;9.908;2023-04-06T02:53:06;-0.70;99.90
20364;DHT22;10340;53.664;9.908;2023-04-06T02:55:33;-0.70;99.90
20364;DHT22;10340;53.664;9.908;2023-04-06T02:58:00;-0.70;99.90
20364;DHT22;10340;53.664;9.908;2023-04-06T03:00:27;-0.70;99.90
20364;DHT22;10340;53.664;9.908;2023-04-06T03:02:54;-0.70;99.90
20364;DHT22;10340;53.664;9.908;2023-04-06T03:05:21;-0.70;99.90
20364;DHT22;10340;53.664;9.908;2023-04-06T03:07:50;-0.70;99.90
20364;DHT22;10340;53.664;9.908;2023-04-06T03:10:17;-0.80;99.90
20364;DHT22;10340;53.664;9.908;2023-04-06T03:12:44;-0.80;99.90
20364;DHT22;10340;53.664;9.908;2023-04-06T03:15:11;-0.80;99.90
20364;DHT22;10340;53.664;9.908;2023-04-06T03:17:38;-0.70;99.90
20364;DHT22;10340;53.664;9.908;2023-04-06T03:20:06;-0.80;99.90
20364;DHT22;10340;53.664;9.908;2023-04-06T03:22:33;-0.80;99.90
20364;DHT22;10340;53.664;9.908;2023-04-06T03:25:02;-0.80;99.90
20364;DHT22;10340;53.664;9.908;2023-04-06T03:27:29;-0.80;99.90
20364;DHT22;10340;53.664;9.908;2023-04-06T03:29:56;-0.80;99.90
20364;DHT22;10340;53.664;9.908;2023-04-06T03:32:23;-0.90;99.90
20364;DHT22;10340;53.664;9.908;2023-04-06T03:34:50;-0.80;99.90
20364;DHT22;10340;53.664;9.908;2023-04-06T03:37:18;-0.80;99.90
20364;DHT22;10340;53.664;9.908;2023-04-06T03:39:45;-0.80;99.90
20364;DHT22;10340;53.664;9.908;2023-04-06T03:42:13;-0.90;99.90
20364;DHT22;10340;53.664;9.908;2023-04-06T03:44:40;-0.90;99.90
20364;DHT22;10340;53.664;9.908;2023-04-06T03:47:07;-0.80;99.90
20364;DHT22;10340;53.664;9.908;2023-04-06T03:49:35;-0.80;99.90
20364;DHT22;10340;53.664;9.908;2023-04-06T03:52:02;-0.80;99.90
20364;DHT22;10340;53.664;9.908;2023-04-06T03:54:29;-0.80;99.90
20364;DHT22;10340;53.664;9.908;2023-04-06T03:56:56;-0.80;99.90
20364;DHT22;10340;53.664;9.908;2023-04-06T03:59:25;-0.70;99.90
20364;DHT22;10340;53.664;9.908;2023-04-06T04:01:52;-0.70;99.90
20364;DHT22;10340;53.664;9.908;2023-04-06T04:04:19;-0.70;99.90
20364;DHT22;10340;53.664;9.908;2023-04-06T04:06:46;-0.60;99.90
20364;DHT22;10340;53.664;9.908;2023-04-06T04:09:13;-0.70;99.90
20364;DHT22;10340;53.664;9.908;2023-04-06T04:11:40;-0.70;99.90
20364;DHT22;10340;53.664;9.908;2023-04-06T04:14:08;-0.70;99.90
20364;DHT22;10340;53.664;9.908;2023-04-06T04:16:36;-0.60;99.90
20364;DHT22;10340;53.664;9.908;2023-04-06T04:19:05;-0.70;99.90
20364;DHT22;10340;53.664;9.908;2023-04-06T04:21:32;-0.70;99.90
20364;DHT22;10340;53.664;9.908;2023-04-06T04:23:59;-0.70;99.90
20364;DHT22;10340;53.664;9.908;2023-04-06T04:26:26;-0.70;99.90
20364;DHT22;10340;53.664;9.908;2023-04-06T04:28:53;-0.70;99.90
20364;DHT22;10340;53.664;9.908;2023-04-06T04:31:21;-0.60;99.90
20364;DHT22;10340;53.664;9.908;2023-04-06T04:33:52;-0.70;99.90
20364;DHT22;10340;53.664;9.908;2023-04-06T04:36:19;-0.70;99.90
20364;DHT22;10340;53.664;9.908;2023-04-06T04:38:46;-0.70;99.90
20364;DHT22;10340;53.664;9.908;2023-04-06T04:41:13;-0.80;99.90
20364;DHT22;10340;53.664;9.908;2023-04-06T04:43:40;-0.80;99.90
20364;DHT22;10340;53.664;9.908;2023-04-06T04:46:08;-0.80;99.90
20364;DHT22;10340;53.664;9.908;2023-04-06T04:48:35;-0.70;99.90
20364;DHT22;10340;53.664;9.908;2023-04-06T04:51:04;-0.70;99.90
20364;DHT22;10340;53.664;9.908;2023-04-06T04:53:31;-0.70;99.90
20364;DHT22;10340;53.664;9.908;2023-04-06T04:55:58;-0.60;99.90
20364;DHT22;10340;53.664;9.908;2023-04-06T04:58:27;-0.60;99.90
20364;DHT22;10340;53.664;9.908;2023-04-06T05:00:58;-0.60;99.90
20364;DHT22;10340;53.664;9.908;2023-04-06T05:03:26;-0.50;99.90
20364;DHT22;10340;53.664;9.908;2023-04-06T05:05:53;-0.50;99.90
20364;DHT22;10340;53.664;9.908;2023-04-06T05:08:22;-0.50;99.90
20364;DHT22;10340;53.664;9.908;2023-04-06T05:10:49;-0.50;99.90
20364;DHT22;10340;53.664;9.908;2023-04-06T05:13:16;-0.40;99.90
20364;DHT22;10340;53.664;9.908;2023-04-06T05:15:43;-0.40;99.90
20364;DHT22;10340;53.664;9.908;2023-04-06T05:18:10;-0.30;99.90
20364;DHT22;10340;53.664;9.908;2023-04-06T05:20:38;-0.30;99.90
20364;DHT22;10340;53.664;9.908;2023-04-06T05:23:06;-0.30;99.90
20364;DHT22;10340;53.664;9.908;2023-04-06T05:25:34;-0.20;99.90
20364;DHT22;10340;53.664;9.908;2023-04-06T05:28:01;-0.20;99.90
20364;DHT22;10340;53.664;9.908;2023-04-06T05:30:28;-0.20;99.90
20364;DHT22;10340;53.664;9.908;2023-04-06T05:32:56;-0.20;99.90
20364;DHT22;10340;53.664;9.908;2023-04-06T05:35:23;-0.10;99.90
20364;DHT22;10340;53.664;9.908;2023-04-06T05:37:50;-0.10;99.90
20364;DHT22;10340;53.664;9.908;2023-04-06T05:40:17;0.00;99.90
20364;DHT22;10340;53.664;9.908;2023-04-06T05:42:46;0.00;99.90
20364;DHT22;10340;53.664;9.908;2023-04-06T05:45:13;0.10;99.90
20364;DHT22;10340;53.664;9.908;2023-04-06T05:47:42;0.20;99.90
20364;DHT22;10340;53.664;9.908;2023-04-06T05:50:10;0.30;99.90
20364;DHT22;10340;53.664;9.908;2023-04-06T05:52:38;0.30;99.90
20364;DHT22;10340;53.664;9.908;2023-04-06T05:55:09;0.40;99.90
20364;DHT22;10340;53.664;9.908;2023-04-06T05:57:36;0.50;99.90
20364;DHT22;10340;53.664;9.908;2023-04-06T06:00:06;0.50;99.90
20364;DHT22;10340;53.664;9.908;2023-04-06T06:02:35;0.60;99.90
20364;DHT22;10340;53.664;9.908;2023-04-06T06:05:03;0.80;99.90
20364;DHT22;10340;53.664;9.908;2023-04-06T06:07:30;0.90;99.90
20364;DHT22;10340;53.664;9.908;2023-04-06T06:09:57;0.90;99.90
20364;DHT22;10340;53.664;9.908;2023-04-06T06:12:24;1.10;99.90
20364;DHT22;10340;53.664;9.908;2023-04-06T06:14:51;1.10;99.90
20364;DHT22;10340;53.664;9.908;2023-04-06T06:17:20;1.20;99.90
20364;DHT22;10340;53.664;9.908;2023-04-06T06:19:47;1.30;99.90
20364;DHT22;10340;53.664;9.908;2023-04-06T06:22:15;1.40;99.90
20364;DHT22;10340;53.664;9.908;2023-04-06T06:24:42;1.50;99.90
20364;DHT22;10340;53.664;9.908;2023-04-06T06:27:09;1.60;99.90
20364;DHT22;10340;53.664;9.908;2023-04-06T06:29:36;1.70;99.90
20364;DHT22;10340;53.664;9.908;2023-04-06T06:32:03;1.80;99.90
20364;DHT22;10340;53.664;9.908;2023-04-06T06:34:32;1.90;99.90
20364;DHT22;10340;53.664;9.908;2023-04-06T06:36:59;2.00;99.90
20364;DHT22;10340;53.664;9.908;2023-04-06T06:39:26;2.10;99.90
20364;DHT22;10340;53.664;9.908;2023-04-06T06:41:53;2.20;99.90
20364;DHT22;10340;53.664;9.908;2023-04-06T06:44:20;2.30;99.90
20364;DHT22;10340;53.664;9.908;2023-04-06T06:46:48;2.90;99.90
20364;DHT22;10340;53.664;9.908;2023-04-06T06:49:15;2.70;99.90
20364;DHT22;10340;53.664;9.908;2023-04-06T06:51:44;2.70;99.90
20364;DHT22;10340;53.664;9.908;2023-04-06T06:54:12;2.90;99.90
20364;DHT22;10340;53.664;9.908;2023-04-06T06:56:39;3.00;99.90
20364;DHT22;10340;53.664;9.908;2023-04-06T06:59:06;3.10;99.90
20364;DHT22;10340;53.664;9.908;2023-04-06T07:01:33;3.20;99.90
20364;DHT22;10340;53.664;9.908;2023-04-06T07:04:01;3.40;99.90
20364;DHT22;10340;53.664;9.908;2023-04-06T07:06:28;3.50;99.90
20364;DHT22;10340;53.664;9.908;2023-04-06T07:08:56;3.60;99.90
20364;DHT22;10340;53.664;9.908;2023-04-06T07:11:24;3.80;99.90
20364;DHT22;10340;53.664;9.908;2023-04-06T07:13:51;3.90;99.90
20364;DHT22;10340;53.664;9.908;2023-04-06T07:16:18;4.10;99.90
20364;DHT22;10340;53.664;9.908;2023-04-06T07:18:46;4.20;99.90
20364;DHT22;10340;53.664;9.908;2023-04-06T07:21:13;4.40;99.90
20364;DHT22;10340;53.664;9.908;2023-04-06T07:23:40;4.50;99.90
20364;DHT22;10340;53.664;9.908;2023-04-06T07:26:08;4.70;99.90
20364;DHT22;10340;53.664;9.908;2023-04-06T07:28:36;4.80;99.90
20364;DHT22;10340;53.664;9.908;2023-04-06T07:31:03;5.00;99.90
20364;DHT22;10340;53.664;9.908;2023-04-06T07:33:30;5.10;99.90
20364;DHT22;10340;53.664;9.908;2023-04-06T07:35:57;5.20;99.90
20364;DHT22;10340;53.664;9.908;2023-04-06T07:38:25;5.40;99.90
20364;DHT22;10340;53.664;9.908;2023-04-06T07:40:52;5.50;99.90
20364;DHT22;10340;53.664;9.908;2023-04-06T07:43:21;5.60;99.90
20364;DHT22;10340;53.664;9.908;2023-04-06T07:45:48;5.70;99.90
20364;DHT22;10340;53.664;9.908;2023-04-06T07:48:15;5.90;99.90
20364;DHT22;10340;53.664;9.908;2023-04-06T07:50:43;6.00;99.90
20364;DHT22;10340;53.664;9.908;2023-04-06T07:53:10;6.10;99.90
20364;DHT22;10340;53.664;9.908;2023-04-06T07:55:37;6.30;99.90
20364;DHT22;10340;53.664;9.908;2023-04-06T07:58:04;6.40;99.90
20364;DHT22;10340;53.664;9.908;2023-04-06T08:00:33;6.50;99.90
20364;DHT22;10340;53.664;9.908;2023-04-06T08:03:00;6.60;99.90
20364;DHT22;10340;53.664;9.908;2023-04-06T08:05:27;6.70;99.90
20364;DHT22;10340;53.664;9.908;2023-04-06T08:07:54;6.80;99.90
20364;DHT22;10340;53.664;9.908;2023-04-06T08:10:22;6.90;99.90
20364;DHT22;10340;53.664;9.908;2023-04-06T08:12:49;7.00;99.90
20364;DHT22;10340;53.664;9.908;2023-04-06T08:15:16;7.20;99.90
20364;DHT22;10340;53.664;9.908;2023-04-06T08:17:45;7.30;99.90
20364;DHT22;10340;53.664;9.908;2023-04-06T08:20:12;7.40;99.90
20364;DHT22;10340;53.664;9.908;2023-04-06T08:22:40;7.70;99.90
20364;DHT22;10340;53.664;9.908;2023-04-06T08:25:08;7.60;99.90
20364;DHT22;10340;53.664;9.908;2023-04-06T08:27:35;7.70;99.90
20364;DHT22;10340;53.664;9.908;2023-04-06T08:30:03;7.90;99.90
20364;DHT22;10340;53.664;9.908;2023-04-06T08:32:31;7.90;99.90
20364;DHT22;10340;53.664;9.908;2023-04-06T08:34:59;8.00;99.90
20364;DHT22;10340;53.664;9.908;2023-04-06T08:37:29;8.10;99.90
20364;DHT22;10340;53.664;9.908;2023-04-06T08:39:57;8.10;99.90
20364;DHT22;10340;53.664;9.908;2023-04-06T08:42:26;8.30;99.90
20364;DHT22;10340;53.664;9.908;2023-04-06T08:44:55;8.30;99.90
20364;DHT22;10340;53.664;9.908;2023-04-06T08:47:22;8.30;99.90
20364;DHT22;10340;53.664;9.908;2023-04-06T08:49:50;8.40;99.90
20364;DHT22;10340;53.664;9.908;2023-04-06T08:52:20;8.40;99.90
20364;DHT22;10340;53.664;9.908;2023-04-06T08:54:47;8.60;99.90
20364;DHT22;10340;53.664;9.908;2023-04-06T08:57:15;8.60;99.90
20364;DHT22;10340;53.664;9.908;2023-04-06T08:59:44;8.60;99.90
20364;DHT22;10340;53.664;9.908;2023-04-06T09:02:17;8.70;99.90
20364;DHT22;10340;53.664;9.908;2023-04-06T09:04:46;8.80;99.90
20364;DHT22;10340;53.664;9.908;2023-04-06T09:07:14;8.80;99.90
20364;DHT22;10340;53.664;9.908;2023-04-06T09:09:43;8.90;99.90
20364;DHT22;10340;53.664;9.908;2023-04-06T09:12:22;9.10;99.90
20364;DHT22;10340;53.664;9.908;2023-04-06T09:14:50;9.20;99.90
20364;DHT22;10340;53.664;9.908;2023-04-06T09:17:20;9.20;99.90
20364;DHT22;10340;53.664;9.908;2023-04-06T09:19:48;9.30;99.90
20364;DHT22;10340;53.664;9.908;2023-04-06T09:22:16;9.30;99.90
20364;DHT22;10340;53.664;9.908;2023-04-06T09:24:46;9.40;99.90
20364;DHT22;10340;53.664;9.908;2023-04-06T09:27:14;9.40;99.90
20364;DHT22;10340;53.664;9.908;2023-04-06T09:29:42;9.50;99.90
20364;DHT22;10340;53.664;9.908;2023-04-06T09:32:10;9.60;99.90
20364;DHT22;10340;53.664;9.908;2023-04-06T09:34:42;9.70;99.90
20364;DHT22;10340;53.664;9.908;2023-04-06T09:37:17;9.70;99.90
20364;DHT22;10340;53.664;9.908;2023-04-06T09:39:46;9.80;99.90
20364;DHT22;10340;53.664;9.908;2023-04-06T09:42:24;9.90;99.90
20364;DHT22;10340;53.664;9.908;2023-04-06T09:44:52;10.00;99.90
20364;DHT22;10340;53.664;9.908;2023-04-06T09:47:20;10.20;99.90
20364;DHT22;10340;53.664;9.908;2023-04-06T09:49:50;10.20;99.90
20364;DHT22;10340;53.664;9.908;2023-04-06T09:52:20;10.20;99.90
20364;DHT22;10340;53.664;9.908;2023-04-06T09:54:50;10.20;99.90
20364;DHT22;10340;53.664;9.908;2023-04-06T09:57:23;10.30;99.90
20364;DHT22;10340;53.664;9.908;2023-04-06T09:59:57;10.40;99.90
20364;DHT22;10340;53.664;9.908;2023-04-06T10:02:30;10.40;99.90
20364;DHT22;10340;53.664;9.908;2023-04-06T10:05:02;10.40;99.90
20364;DHT22;10340;53.664;9.908;2023-04-06T10:07:30;10.50;99.90
20364;DHT22;10340;53.664;9.908;2023-04-06T10:09:59;10.60;99.90
20364;DHT22;10340;53.664;9.908;2023-04-06T10:12:27;10.60;99.90
20364;DHT22;10340;53.664;9.908;2023-04-06T10:14:54;10.60;99.90
20364;DHT22;10340;53.664;9.908;2023-04-06T10:17:22;10.60;99.90
20364;DHT22;10340;53.664;9.908;2023-04-06T10:19:54;10.50;99.90
20364;DHT22;10340;53.664;9.908;2023-04-06T10:22:26;10.60;99.90
20364;DHT22;10340;53.664;9.908;2023-04-06T10:25:08;10.70;99.90
20364;DHT22;10340;53.664;9.908;2023-04-06T10:27:35;10.80;99.90
20364;DHT22;10340;53.664;9.908;2023-04-06T10:30:04;10.80;99.90
20364;DHT22;10340;53.664;9.908;2023-04-06T10:32:33;10.80;99.90
20364;DHT22;10340;53.664;9.908;2023-04-06T10:35:11;10.90;99.90
20364;DHT22;10340;53.664;9.908;2023-04-06T10:37:51;11.00;99.90
20364;DHT22;10340;53.664;9.908;2023-04-06T10:40:22;11.00;99.90
20364;DHT22;10340;53.664;9.908;2023-04-06T10:42:50;11.10;99.90
20364;DHT22;10340;53.664;9.908;2023-04-06T10:45:22;11.20;99.90
20364;DHT22;10340;53.664;9.908;2023-04-06T10:47:50;11.30;99.90
20364;DHT22;10340;53.664;9.908;2023-04-06T10:50:18;11.30;99.90
20364;DHT22;10340;53.664;9.908;2023-04-06T10:52:46;11.30;99.90
20364;DHT22;10340;53.664;9.908;2023-04-06T10:55:14;11.40;99.90
20364;DHT22;10340;53.664;9.908;2023-04-06T10:57:46;11.50;99.90
20364;DHT22;10340;53.664;9.908;2023-04-06T11:00:14;11.60;99.90
20364;DHT22;10340;53.664;9.908;2023-04-06T11:02:41;11.60;99.90
20364;DHT22;10340;53.664;9.908;2023-04-06T11:05:10;11.80;99.90
20364;DHT22;10340;53.664;9.908;2023-04-06T11:07:39;11.90;99.90
20364;DHT22;10340;53.664;9.908;2023-04-06T11:10:08;11.90;99.90
20364;DHT22;10340;53.664;9.908;2023-04-06T11:12:35;12.00;99.90
20364;DHT22;10340;53.664;9.908;2023-04-06T11:15:05;12.00;99.90
20364;DHT22;10340;53.664;9.908;2023-04-06T11:17:33;12.00;99.90
20364;DHT22;10340;53.664;9.908;2023-04-06T11:20:01;12.10;99.90
20364;DHT22;10340;53.664;9.908;2023-04-06T11:22:30;12.10;99.90
20364;DHT22;10340;53.664;9.908;2023-04-06T11:25:05;12.10;99.90
20364;DHT22;10340;53.664;9.908;2023-04-06T11:27:33;12.20;99.90
20364;DHT22;10340;53.664;9.908;2023-04-06T11:30:00;12.40;99.90
20364;DHT22;10340;53.664;9.908;2023-04-06T11:32:29;12.40;99.90
20364;DHT22;10340;53.664;9.908;2023-04-06T11:34:58;12.50;99.90
20364;DHT22;10340;53.664;9.908;2023-04-06T11:37:26;12.60;99.90
20364;DHT22;10340;53.664;9.908;2023-04-06T11:39:55;12.60;99.90
20364;DHT22;10340;53.664;9.908;2023-04-06T11:42:23;12.70;99.90
20364;DHT22;10340;53.664;9.908;2023-04-06T11:44:51;12.60;99.90
20364;DHT22;10340;53.664;9.908;2023-04-06T11:47:19;12.50;99.90
20364;DHT22;10340;53.664;9.908;2023-04-06T11:50:25;12.60;99.90
20364;DHT22;10340;53.664;9.908;2023-04-06T11:52:59;12.60;99.90
20364;DHT22;10340;53.664;9.908;2023-04-06T11:55:27;12.70;99.90
20364;DHT22;10340;53.664;9.908;2023-04-06T11:57:54;12.90;99.90
20364;DHT22;10340;53.664;9.908;2023-04-06T12:00:21;12.90;99.90
20364;DHT22;10340;53.664;9.908;2023-04-06T12:02:49;13.00;99.90
20364;DHT22;10340;53.664;9.908;2023-04-06T12:05:18;13.00;99.90
20364;DHT22;10340;53.664;9.908;2023-04-06T12:07:45;13.00;99.90
20364;DHT22;10340;53.664;9.908;2023-04-06T12:15:26;13.00;99.90
20364;DHT22;10340;53.664;9.908;2023-04-06T12:17:53;13.10;99.90
20364;DHT22;10340;53.664;9.908;2023-04-06T12:20:22;13.20;99.90
20364;DHT22;10340;53.664;9.908;2023-04-06T12:22:49;13.20;99.90
20364;DHT22;10340;53.664;9.908;2023-04-06T12:25:16;13.20;99.90
20364;DHT22;10340;53.664;9.908;2023-04-06T12:27:43;13.20;99.90
20364;DHT22;10340;53.664;9.908;2023-04-06T12:30:11;13.20;99.90
20364;DHT22;10340;53.664;9.908;2023-04-06T12:32:39;13.20;99.90
20364;DHT22;10340;53.664;9.908;2023-04-06T12:35:06;13.30;99.90
20364;DHT22;10340;53.664;9.908;2023-04-06T12:37:36;13.40;99.90
20364;DHT22;10340;53.664;9.908;2023-04-06T12:40:04;13.50;99.90
20364;DHT22;10340;53.664;9.908;2023-04-06T12:42:32;13.70;99.90
20364;DHT22;10340;53.664;9.908;2023-04-06T12:44:59;13.70;99.90
20364;DHT22;10340;53.664;9.908;2023-04-06T12:47:27;13.60;99.90
20364;DHT22;10340;53.664;9.908;2023-04-06T12:49:54;13.60;99.90
20364;DHT22;10340;53.664;9.908;2023-04-06T12:52:25;13.60;99.90
20364;DHT22;10340;53.664;9.908;2023-04-06T12:54:54;13.70;99.90
20364;DHT22;10340;53.664;9.908;2023-04-06T12:57:21;13.50;99.90
20364;DHT22;10340;53.664;9.908;2023-04-06T12:59:48;13.50;99.90
20364;DHT22;10340;53.664;9.908;2023-04-06T13:02:15;13.50;99.90
20364;DHT22;10340;53.664;9.908;2023-04-06T13:04:43;13.60;99.90
20364;DHT22;10340;53.664;9.908;2023-04-06T13:07:10;13.80;99.90
20364;DHT22;10340;53.664;9.908;2023-04-06T13:09:37;14.00;99.90
20364;DHT22;10340;53.664;9.908;2023-04-06T13:12:05;13.90;99.90
20364;DHT22;10340;53.664;9.908;2023-04-06T13:14:38;13.90;99.90
20364;DHT22;10340;53.664;9.908;2023-04-06T13:17:13;13.90;99.90
20364;DHT22;10340;53.664;9.908;2023-04-06T13:19:40;14.10;99.90
20364;DHT22;10340;53.664;9.908;2023-04-06T13:22:07;14.10;99.90
20364;DHT22;10340;53.664;9.908;2023-04-06T13:24:37;14.10;99.90
20364;DHT22;10340;53.664;9.908;2023-04-06T13:27:06;14.00;99.90
20364;DHT22;10340;53.664;9.908;2023-04-06T13:29:33;14.00;99.90
20364;DHT22;10340;53.664;9.908;2023-04-06T13:32:00;13.90;99.90
20364;DHT22;10340;53.664;9.908;2023-04-06T13:34:27;13.80;99.90
20364;DHT22;10340;53.664;9.908;2023-04-06T13:36:55;13.90;99.90
20364;DHT22;10340;53.664;9.908;2023-04-06T13:39:22;14.00;99.90
20364;DHT22;10340;53.664;9.908;2023-04-06T13:41:49;14.10;99.90
20364;DHT22;10340;53.664;9.908;2023-04-06T13:44:18;13.90;99.90
20364;DHT22;10340;53.664;9.908;2023-04-06T13:46:45;14.00;99.90
20364;DHT22;10340;53.664;9.908;2023-04-06T13:49:13;13.80;99.90
20364;DHT22;10340;53.664;9.908;2023-04-06T13:51:41;13.90;99.90
20364;DHT22;10340;53.664;9.908;2023-04-06T13:54:08;13.90;99.90
20364;DHT22;10340;53.664;9.908;2023-04-06T13:56:35;14.00;99.90
20364;DHT22;10340;53.664;9.908;2023-04-06T13:59:02;13.90;99.90
20364;DHT22;10340;53.664;9.908;2023-04-06T14:01:31;14.10;99.90
20364;DHT22;10340;53.664;9.908;2023-04-06T14:03:58;13.90;99.90
20364;DHT22;10340;53.664;9.908;2023-04-06T14:06:25;13.90;99.90
20364;DHT22;10340;53.664;9.908;2023-04-06T14:08:52;13.90;99.90
20364;DHT22;10340;53.664;9.908;2023-04-06T14:11:19;14.00;99.90
20364;DHT22;10340;53.664;9.908;2023-04-06T14:13:47;14.20;99.90
20364;DHT22;10340;53.664;9.908;2023-04-06T14:16:14;14.30;99.90
20364;DHT22;10340;53.664;9.908;2023-04-06T14:18:46;14.20;99.90
20364;DHT22;10340;53.664;9.908;2023-04-06T14:21:13;14.30;99.90
20364;DHT22;10340;53.664;9.908;2023-04-06T14:23:40;14.30;99.90
20364;DHT22;10340;53.664;9.908;2023-04-06T14:26:08;14.20;99.90
20364;DHT22;10340;53.664;9.908;2023-04-06T14:28:35;14.20;99.90
20364;DHT22;10340;53.664;9.908;2023-04-06T14:31:09;14.20;99.90
20364;DHT22;10340;53.664;9.908;2023-04-06T14:33:37;14.20;99.90
20364;DHT22;10340;53.664;9.908;2023-04-06T14:36:06;14.20;99.90
20364;DHT22;10340;53.664;9.908;2023-04-06T14:38:33;14.30;99.90
20364;DHT22;10340;53.664;9.908;2023-04-06T14:41:01;14.40;99.90
20364;DHT22;10340;53.664;9.908;2023-04-06T14:43:28;14.40;99.90
20364;DHT22;10340;53.664;9.908;2023-04-06T14:46:01;14.50;99.90
20364;DHT22;10340;53.664;9.908;2023-04-06T14:48:28;14.50;99.90
20364;DHT22;10340;53.664;9.908;2023-04-06T14:50:56;14.40;99.90
20364;DHT22;10340;53.664;9.908;2023-04-06T14:53:25;14.30;99.90
20364;DHT22;10340;53.664;9.908;2023-04-06T14:55:53;14.30;99.90
20364;DHT22;10340;53.664;9.908;2023-04-06T14:58:21;14.30;99.90
20364;DHT22;10340;53.664;9.908;2023-04-06T15:00:48;14.30;99.90
20364;DHT22;10340;53.664;9.908;2023-04-06T15:03:16;14.50;99.90
20364;DHT22;10340;53.664;9.908;2023-04-06T15:05:44;14.50;99.90
20364;DHT22;10340;53.664;9.908;2023-04-06T15:08:11;14.50;99.90
20364;DHT22;10340;53.664;9.908;2023-04-06T15:10:44;14.40;99.90
20364;DHT22;10340;53.664;9.908;2023-04-06T15:13:11;14.40;99.90
20364;DHT22;10340;53.664;9.908;2023-04-06T15:15:38;14.40;99.90
20364;DHT22;10340;53.664;9.908;2023-04-06T15:18:05;14.40;99.90
20364;DHT22;10340;53.664;9.908;2023-04-06T15:20:32;14.40;99.90
20364;DHT22;10340;53.664;9.908;2023-04-06T15:23:01;14.30;99.90
20364;DHT22;10340;53.664;9.908;2023-04-06T15:25:28;14.30;99.90
20364;DHT22;10340;53.664;9.908;2023-04-06T15:27:57;14.30;99.90
20364;DHT22;10340;53.664;9.908;2023-04-06T15:30:25;14.40;99.90
20364;DHT22;10340;53.664;9.908;2023-04-06T15:32:59;14.50;99.90
20364;DHT22;10340;53.664;9.908;2023-04-06T15:35:27;14.60;99.90
20364;DHT22;10340;53.664;9.908;2023-04-06T15:37:55;14.40;99.90
20364;DHT22;10340;53.664;9.908;2023-04-06T15:40:22;14.40;99.90
20364;DHT22;10340;53.664;9.908;2023-04-06T15:42:52;14.50;99.90
20364;DHT22;10340;53.664;9.908;2023-04-06T15:45:21;14.30;99.90